Time;durP1;ratioP1;P1;durP2;ratioP2;P2;SDS_P1;SDS_P2;PMS_P1;PMS_P2;Temp;Humidity;BMP_temperature;BMP_pressure;BME280_temperature;BME280_humidity;BME280_pressure;Samples;Min_cycle;Max_cycle;Signal;HPM_P1;HPM_P2
2022/06/19 00:00:27;;;;;;;7.70;6.00;;;;;;;;;;4962107;28;20299;-73
2022/06/19 00:02:54;;;;;;;9.40;5.83;;;;;;;;;;4946816;28;20229;-72
2022/06/19 00:05:21;;;;;;;8.97;5.87;;;;;;;;;;4947378;28;20697;-72
2022/06/19 00:07:47;;;;;;;7.63;6.07;;;;;;;;;;4961318;28;20707;-72
2022/06/19 00:10:14;;;;;;;9.20;5.93;;;;;;;;;;5000494;28;21013;-72
2022/06/19 00:12:41;;;;;;;7.43;5.80;;;;;;;;;;4984879;28;20235;-72
2022/06/19 00:15:08;;;;;;;10.87;6.13;;;;;;;;;;4998693;28;20239;-73
2022/06/19 00:17:34;;;;;;;7.97;5.40;;;;;;;;;;4964088;28;20228;-72
2022/06/19 00:20:01;;;;;;;8.40;5.77;;;;;;;;;;4948401;28;20589;-72
2022/06/19 00:22:46;;;;;;;11.50;5.70;;;;;;;;;;4953296;28;20236;-72
2022/06/19 00:25:12;;;;;;;8.17;5.53;;;;;;;;;;4958421;28;20244;-72
2022/06/19 00:27:39;;;;;;;6.03;5.10;;;;;;;;;;4960758;28;21092;-72
2022/06/19 00:30:07;;;;;;;7.13;5.23;;;;;;;;;;4961251;28;20302;-72
2022/06/19 00:32:33;;;;;;;6.60;5.40;;;;;;;;;;4946451;28;20221;-72
2022/06/19 00:35:00;;;;;;;5.87;5.27;;;;;;;;;;4945086;28;20236;-72
2022/06/19 00:37:29;;;;;;;9.80;5.80;;;;;;;;;;4962042;28;20232;-72
2022/06/19 00:39:56;;;;;;;10.50;6.17;;;;;;;;;;4952683;28;20671;-72
2022/06/19 00:42:24;;;;;;;10.63;6.87;;;;;;;;;;4952291;28;20249;-73
2022/06/19 00:44:51;;;;;;;10.30;6.57;;;;;;;;;;5000732;28;20231;-72
2022/06/19 00:47:24;;;;;;;11.27;7.07;;;;;;;;;;4955850;28;20243;-72
2022/06/19 00:50:11;;;;;;;8.33;6.23;;;;;;;;;;4963350;28;20714;-72
2022/06/19 00:52:38;;;;;;;9.73;6.07;;;;;;;;;;4951734;28;20708;-72
2022/06/19 00:55:24;;;;;;;8.73;6.20;;;;;;;;;;4956246;28;20637;-72
2022/06/19 00:57:51;;;;;;;7.70;5.40;;;;;;;;;;4936973;28;232948;-72
2022/06/19 01:00:23;;;;;;;7.20;5.50;;;;;;;;;;4961900;28;20708;-72
2022/06/19 01:02:50;;;;;;;8.37;6.03;;;;;;;;;;4959981;28;20232;-72
2022/06/19 01:05:17;;;;;;;7.83;5.60;;;;;;;;;;4949831;28;20228;-72
2022/06/19 01:07:43;;;;;;;8.40;5.40;;;;;;;;;;4957750;28;20312;-72
2022/06/19 01:10:12;;;;;;;7.70;5.50;;;;;;;;;;4957170;28;20233;-72
2022/06/19 01:12:56;;;;;;;6.77;4.80;;;;;;;;;;4941074;28;20586;-72
2022/06/19 01:15:23;;;;;;;8.17;5.50;;;;;;;;;;4945575;28;20241;-72
2022/06/19 01:17:51;;;;;;;8.67;5.70;;;;;;;;;;4951094;28;20240;-72
2022/06/19 01:20:18;;;;;;;8.30;5.47;;;;;;;;;;4979466;28;20244;-73
2022/06/19 01:22:57;;;;;;;8.43;5.63;;;;;;;;;;5001930;28;20227;-72
2022/06/19 01:25:30;;;;;;;6.43;5.03;;;;;;;;;;4999898;28;20690;-72
2022/06/19 01:30:53;;;;;;;8.10;5.23;;;;;;;;;;4953359;28;20877;-72
2022/06/19 01:33:20;;;;;;;5.63;4.97;;;;;;;;;;4953644;28;20240;-72
2022/06/19 01:35:48;;;;;;;7.70;5.40;;;;;;;;;;4960889;28;20307;-72
2022/06/19 01:38:15;;;;;;;8.00;5.67;;;;;;;;;;4945757;28;20220;-72
2022/06/19 01:40:42;;;;;;;7.67;5.57;;;;;;;;;;4959164;28;20236;-72
2022/06/19 01:43:09;;;;;;;5.90;5.03;;;;;;;;;;4945476;28;20233;-72
2022/06/19 01:45:37;;;;;;;6.03;4.80;;;;;;;;;;4960162;28;20584;-72
2022/06/19 01:48:04;;;;;;;6.77;5.20;;;;;;;;;;4945690;28;20225;-72
2022/06/19 01:50:31;;;;;;;6.07;5.30;;;;;;;;;;4962207;28;20228;-73
2022/06/19 01:53:09;;;;;;;6.00;5.23;;;;;;;;;;4944385;28;20232;-72
2022/06/19 01:55:35;;;;;;;6.50;5.30;;;;;;;;;;4960500;28;20232;-73
2022/06/19 01:58:02;;;;;;;8.90;5.70;;;;;;;;;;4942863;28;20224;-72
2022/06/19 02:00:29;;;;;;;7.93;5.80;;;;;;;;;;4954749;28;20311;-72
2022/06/19 02:03:16;;;;;;;9.03;6.37;;;;;;;;;;4947765;28;20236;-72
2022/06/19 02:05:43;;;;;;;17.80;7.00;;;;;;;;;;4958078;28;20258;-72
2022/06/19 02:08:10;;;;;;;11.87;7.17;;;;;;;;;;4940760;28;20592;-72
2022/06/19 02:10:40;;;;;;;8.10;6.60;;;;;;;;;;4961395;28;20305;-72
2022/06/19 02:13:07;;;;;;;10.07;7.10;;;;;;;;;;4893413;28;20228;-72
2022/06/19 02:15:34;;;;;;;8.53;6.70;;;;;;;;;;4939416;28;20233;-72
2022/06/19 02:18:08;;;;;;;9.73;6.67;;;;;;;;;;4927516;28;20234;-71
2022/06/19 02:20:52;;;;;;;13.53;7.43;;;;;;;;;;4953369;28;20254;-72
2022/06/19 02:23:21;;;;;;;8.33;6.10;;;;;;;;;;4978092;28;20246;-72
2022/06/19 02:26:05;;;;;;;8.13;6.43;;;;;;;;;;4984306;28;20230;-72
2022/06/19 02:28:35;;;;;;;7.17;6.07;;;;;;;;;;4998736;28;20219;-72
2022/06/19 02:31:20;;;;;;;7.93;5.77;;;;;;;;;;4950691;28;20328;-72
2022/06/19 02:33:49;;;;;;;8.63;6.50;;;;;;;;;;4947749;28;20241;-72
2022/06/19 02:36:34;;;;;;;6.73;5.73;;;;;;;;;;4980609;28;20234;-72
2022/06/19 02:39:08;;;;;;;8.73;6.90;;;;;;;;;;4998352;28;20242;-71
2022/06/19 02:42:03;;;;;;;7.00;6.30;;;;;;;;;;4940394;28;23310;-72
2022/06/19 02:44:31;;;;;;;8.13;6.17;;;;;;;;;;4934163;28;229739;-72
2022/06/19 02:46:58;;;;;;;9.73;6.27;;;;;;;;;;4945339;28;20237;-72
2022/06/19 02:49:24;;;;;;;11.67;7.93;;;;;;;;;;4998063;28;20572;-72
2022/06/19 02:51:51;;;;;;;10.03;6.97;;;;;;;;;;5000534;28;20231;-71
2022/06/19 02:54:17;;;;;;;8.80;7.40;;;;;;;;;;4998139;28;20223;-72
2022/06/19 02:56:44;;;;;;;8.73;6.40;;;;;;;;;;4999902;28;20228;-72
2022/06/19 02:59:11;;;;;;;8.57;7.70;;;;;;;;;;4965944;28;20737;-71
2022/06/19 03:01:37;;;;;;;11.60;7.80;;;;;;;;;;4952483;28;20225;-72
2022/06/19 03:04:04;;;;;;;8.40;7.60;;;;;;;;;;4983045;28;20270;-72
2022/06/19 03:06:31;;;;;;;9.43;7.20;;;;;;;;;;4999980;28;20227;-71
2022/06/19 03:08:58;;;;;;;8.00;7.20;;;;;;;;;;4963352;28;20231;-71
2022/06/19 03:11:25;;;;;;;9.53;7.60;;;;;;;;;;4947492;28;20232;-72
2022/06/19 03:13:51;;;;;;;10.70;7.80;;;;;;;;;;4941451;28;20600;-72
2022/06/19 03:16:18;;;;;;;8.80;7.90;;;;;;;;;;4958821;28;20236;-72
2022/06/19 03:18:45;;;;;;;9.27;7.67;;;;;;;;;;4951106;28;20227;-72
2022/06/19 03:21:12;;;;;;;9.20;7.53;;;;;;;;;;4960524;28;20639;-72
2022/06/19 03:23:38;;;;;;;9.67;7.70;;;;;;;;;;4948073;28;20592;-71
2022/06/19 03:26:05;;;;;;;9.47;7.17;;;;;;;;;;4949502;28;20244;-72
2022/06/19 03:28:32;;;;;;;10.10;8.20;;;;;;;;;;4957843;28;20384;-72
2022/06/19 03:30:59;;;;;;;10.23;8.10;;;;;;;;;;4963557;28;20225;-72
2022/06/19 03:33:25;;;;;;;9.70;7.73;;;;;;;;;;4963901;28;20232;-71
2022/06/19 03:35:52;;;;;;;11.10;8.70;;;;;;;;;;4960711;28;20240;-72
2022/06/19 03:38:19;;;;;;;11.63;8.40;;;;;;;;;;4943325;28;20232;-72
2022/06/19 03:40:46;;;;;;;11.30;8.77;;;;;;;;;;4959046;28;20217;-71
2022/06/19 03:43:12;;;;;;;9.73;8.43;;;;;;;;;;4952443;28;20684;-72
2022/06/19 03:45:39;;;;;;;10.67;8.27;;;;;;;;;;4950447;28;20226;-71
2022/06/19 03:48:06;;;;;;;9.23;7.40;;;;;;;;;;4922960;28;21024;-71
2022/06/19 03:50:32;;;;;;;12.00;8.03;;;;;;;;;;4960774;28;27269;-72
2022/06/19 03:52:59;;;;;;;10.00;8.23;;;;;;;;;;4952582;28;20332;-72
2022/06/19 03:55:26;;;;;;;10.20;7.53;;;;;;;;;;4944772;28;20234;-72
2022/06/19 03:57:52;;;;;;;9.80;8.43;;;;;;;;;;4961317;28;20235;-71
2022/06/19 04:00:19;;;;;;;10.37;7.87;;;;;;;;;;4951752;28;20995;-72
2022/06/19 04:02:45;;;;;;;11.97;7.40;;;;;;;;;;4948975;28;20232;-72
2022/06/19 04:05:12;;;;;;;10.47;7.50;;;;;;;;;;4922175;28;28345;-72
2022/06/19 04:07:42;;;;;;;10.53;8.00;;;;;;;;;;4875288;28;20236;-71
2022/06/19 04:10:09;;;;;;;10.10;7.57;;;;;;;;;;4944622;28;20868;-71
2022/06/19 04:12:36;;;;;;;11.07;6.90;;;;;;;;;;4918910;28;20866;-72
2022/06/19 04:15:03;;;;;;;9.63;7.60;;;;;;;;;;4921030;28;245920;-71
2022/06/19 04:17:30;;;;;;;8.40;7.50;;;;;;;;;;4907151;28;227788;-70
2022/06/19 04:19:57;;;;;;;9.30;7.97;;;;;;;;;;4946382;28;20322;-72
2022/06/19 04:22:23;;;;;;;9.70;7.80;;;;;;;;;;4918454;28;702453;-72
2022/06/19 04:24:50;;;;;;;9.33;7.83;;;;;;;;;;4904558;28;229181;-71
2022/06/19 04:27:17;;;;;;;9.43;7.70;;;;;;;;;;4930017;28;227342;-71
2022/06/19 04:29:44;;;;;;;10.47;7.70;;;;;;;;;;4917346;28;20261;-71
2022/06/19 04:32:11;;;;;;;9.80;8.10;;;;;;;;;;4920964;28;227734;-73
2022/06/19 04:34:37;;;;;;;8.73;7.63;;;;;;;;;;4917297;28;20246;-72
2022/06/19 04:37:04;;;;;;;12.43;8.40;;;;;;;;;;4947604;28;20252;-72
2022/06/19 04:39:31;;;;;;;10.73;8.07;;;;;;;;;;4906086;28;232738;-74
2022/06/19 04:41:57;;;;;;;9.93;8.23;;;;;;;;;;4914789;28;222652;-73
2022/06/19 04:44:24;;;;;;;10.33;8.03;;;;;;;;;;4905088;28;20232;-73
2022/06/19 04:47:10;;;;;;;12.03;8.70;;;;;;;;;;4918714;28;240219;-72
2022/06/19 04:49:36;;;;;;;10.33;8.77;;;;;;;;;;4925348;28;20318;-74
2022/06/19 04:52:03;;;;;;;9.20;8.00;;;;;;;;;;4941925;28;229431;-71
2022/06/19 04:54:30;;;;;;;10.53;7.60;;;;;;;;;;4950158;28;20319;-71
2022/06/19 04:56:56;;;;;;;8.57;7.13;;;;;;;;;;4890841;28;224155;-75
2022/06/19 04:59:23;;;;;;;10.20;7.33;;;;;;;;;;4920664;28;28550;-72
2022/06/19 05:01:50;;;;;;;7.87;6.90;;;;;;;;;;4949982;28;24070;-72
2022/06/19 05:04:16;;;;;;;9.40;7.13;;;;;;;;;;4945162;28;213066;-69
2022/06/19 05:06:43;;;;;;;10.57;6.70;;;;;;;;;;4909847;28;22107;-72
2022/06/19 05:09:10;;;;;;;9.50;7.10;;;;;;;;;;4944203;28;20240;-71
2022/06/19 05:11:36;;;;;;;7.67;6.10;;;;;;;;;;4909703;28;25363;-73
2022/06/19 05:14:04;;;;;;;6.43;5.70;;;;;;;;;;4889163;28;20220;-71
2022/06/19 05:16:31;;;;;;;7.07;5.90;;;;;;;;;;4941691;28;20327;-76
2022/06/19 05:18:58;;;;;;;7.00;5.37;;;;;;;;;;4960685;28;20715;-72
2022/06/19 05:21:25;;;;;;;6.10;4.83;;;;;;;;;;4918494;28;20236;-72
2022/06/19 05:23:51;;;;;;;9.93;4.90;;;;;;;;;;4951569;28;25471;-71
2022/06/19 05:26:20;;;;;;;7.20;4.03;;;;;;;;;;4945532;28;20307;-70
2022/06/19 05:28:48;;;;;;;6.63;4.40;;;;;;;;;;4886989;28;20236;-73
2022/06/19 05:31:14;;;;;;;8.37;4.30;;;;;;;;;;4905308;28;42112;-72
2022/06/19 05:33:41;;;;;;;8.83;4.23;;;;;;;;;;4932301;28;20254;-71
2022/06/19 05:36:08;;;;;;;6.33;4.30;;;;;;;;;;4902441;28;20280;-71
2022/06/19 05:38:35;;;;;;;5.00;3.80;;;;;;;;;;4922357;28;20952;-69
2022/06/19 05:41:02;;;;;;;7.20;4.67;;;;;;;;;;4949320;28;20631;-70
2022/06/19 05:43:29;;;;;;;8.67;4.80;;;;;;;;;;4952714;28;20244;-70
2022/06/19 05:45:57;;;;;;;9.67;4.90;;;;;;;;;;4856414;28;20229;-73
2022/06/19 05:48:24;;;;;;;8.33;4.13;;;;;;;;;;4960005;28;20232;-73
2022/06/19 05:50:57;;;;;;;6.53;4.37;;;;;;;;;;4910986;28;20239;-69
2022/06/19 05:53:24;;;;;;;6.30;3.60;;;;;;;;;;4951250;28;20232;-68
2022/06/19 05:55:53;;;;;;;7.40;3.80;;;;;;;;;;4953065;28;225718;-70
2022/06/19 05:58:20;;;;;;;5.17;3.30;;;;;;;;;;4926758;28;20274;-72
2022/06/19 06:01:04;;;;;;;6.40;3.60;;;;;;;;;;4879562;28;232836;-72
2022/06/19 06:03:31;;;;;;;7.87;3.60;;;;;;;;;;4923594;28;226103;-72
2022/06/19 06:06:06;;;;;;;4.23;2.73;;;;;;;;;;4927267;28;20246;-76
2022/06/19 06:08:36;;;;;;;4.27;2.60;;;;;;;;;;4900706;28;218556;-75
2022/06/19 06:11:03;;;;;;;5.37;2.20;;;;;;;;;;4895842;28;640857;-73
2022/06/19 06:13:29;;;;;;;3.67;2.23;;;;;;;;;;4875762;28;261864;-74
2022/06/19 06:15:56;;;;;;;5.57;2.20;;;;;;;;;;4915305;28;219466;-73
2022/06/19 06:18:23;;;;;;;4.23;2.30;;;;;;;;;;4934072;28;20240;-71
2022/06/19 06:21:00;;;;;;;5.47;2.83;;;;;;;;;;4918574;28;20228;-72
2022/06/19 06:23:27;;;;;;;6.73;2.57;;;;;;;;;;4917520;28;20260;-72
2022/06/19 06:25:57;;;;;;;4.57;2.23;;;;;;;;;;4872354;28;225147;-71
2022/06/19 06:28:43;;;;;;;6.20;2.40;;;;;;;;;;4911854;28;225911;-74
2022/06/19 06:31:09;;;;;;;5.00;2.37;;;;;;;;;;4924156;28;219862;-70
2022/06/19 06:33:36;;;;;;;4.80;2.20;;;;;;;;;;4906565;28;215966;-75
2022/06/19 06:36:03;;;;;;;6.20;2.40;;;;;;;;;;4941421;28;220218;-75
2022/06/19 06:38:30;;;;;;;5.90;2.10;;;;;;;;;;4889319;28;218728;-75
2022/06/19 06:40:56;;;;;;;4.23;2.50;;;;;;;;;;4928530;28;242418;-75
2022/06/19 06:43:23;;;;;;;6.47;2.37;;;;;;;;;;4919694;28;20596;-73
2022/06/19 06:45:50;;;;;;;5.10;2.50;;;;;;;;;;4947273;28;20228;-73
2022/06/19 06:48:17;;;;;;;6.40;2.50;;;;;;;;;;4954450;28;20243;-73
2022/06/19 06:51:08;;;;;;;6.03;2.50;;;;;;;;;;4955726;28;20728;-73
2022/06/19 06:53:35;;;;;;;6.03;2.53;;;;;;;;;;4953816;28;20234;-73
2022/06/19 06:56:01;;;;;;;4.47;2.27;;;;;;;;;;4961633;28;20248;-74
2022/06/19 06:58:28;;;;;;;8.07;2.23;;;;;;;;;;4940827;28;20708;-73
2022/06/19 07:00:55;;;;;;;3.77;2.00;;;;;;;;;;4946577;28;20688;-73
2022/06/19 07:03:21;;;;;;;5.93;2.10;;;;;;;;;;4968848;28;20228;-74
2022/06/19 07:05:48;;;;;;;7.30;2.07;;;;;;;;;;4953571;28;20238;-73
2022/06/19 07:08:15;;;;;;;4.03;1.90;;;;;;;;;;4974860;28;20309;-73
2022/06/19 07:10:41;;;;;;;5.70;2.00;;;;;;;;;;4935416;28;216579;-73
2022/06/19 07:13:08;;;;;;;4.00;1.73;;;;;;;;;;4960732;28;20232;-73
2022/06/19 07:15:35;;;;;;;6.57;1.93;;;;;;;;;;4957752;28;20240;-73
2022/06/19 07:18:01;;;;;;;4.07;1.90;;;;;;;;;;4959483;28;20229;-73
2022/06/19 07:20:28;;;;;;;3.30;2.00;;;;;;;;;;4956289;28;20236;-73
2022/06/19 07:22:55;;;;;;;6.57;1.83;;;;;;;;;;4888322;28;636944;-80
2022/06/19 07:25:22;;;;;;;3.77;2.03;;;;;;;;;;4957662;28;20316;-76
2022/06/19 07:27:48;;;;;;;5.83;1.97;;;;;;;;;;4961040;28;20224;-69
2022/06/19 07:30:17;;;;;;;5.13;2.07;;;;;;;;;;4984343;28;20235;-69
2022/06/19 07:32:44;;;;;;;5.70;2.10;;;;;;;;;;4946170;28;217071;-85
2022/06/19 07:35:11;;;;;;;6.43;2.00;;;;;;;;;;4970357;28;217291;-70
2022/06/19 07:37:37;;;;;;;4.63;2.03;;;;;;;;;;4964791;28;20232;-75
2022/06/19 07:40:04;;;;;;;3.07;1.83;;;;;;;;;;4954138;28;20236;-67
2022/06/19 07:42:31;;;;;;;3.47;1.93;;;;;;;;;;4962250;28;20287;-69
2022/06/19 07:44:57;;;;;;;3.37;1.77;;;;;;;;;;4917646;28;24058;-80
2022/06/19 07:50:09;;;;;;;3.37;1.70;;;;;;;;;;4944379;28;220654;-75
2022/06/19 07:52:43;;;;;;;5.27;2.00;;;;;;;;;;4964929;28;20233;-75
2022/06/19 07:55:10;;;;;;;4.57;2.23;;;;;;;;;;4949311;28;221296;-76
2022/06/19 07:57:37;;;;;;;2.83;1.80;;;;;;;;;;4915454;28;218575;-75
2022/06/19 08:00:05;;;;;;;5.70;1.93;;;;;;;;;;4956911;28;218248;-76
2022/06/19 08:02:32;;;;;;;4.07;2.80;;;;;;;;;;4941434;28;222582;-76
2022/06/19 08:04:59;;;;;;;5.27;3.50;;;;;;;;;;4935684;28;214402;-72
2022/06/19 08:07:26;;;;;;;5.77;3.80;;;;;;;;;;4944751;28;220686;-72
2022/06/19 08:09:52;;;;;;;6.17;4.20;;;;;;;;;;4962349;28;20224;-72
2022/06/19 08:12:20;;;;;;;7.10;4.53;;;;;;;;;;4964034;28;34057;-72
2022/06/19 08:14:46;;;;;;;6.20;3.93;;;;;;;;;;4949101;28;20234;-73
2022/06/19 08:17:13;;;;;;;7.73;4.03;;;;;;;;;;4931810;28;20317;-74
2022/06/19 08:19:40;;;;;;;6.57;4.37;;;;;;;;;;4933778;28;270778;-71
2022/06/19 08:22:07;;;;;;;6.50;3.90;;;;;;;;;;4961733;28;20241;-73
2022/06/19 08:24:33;;;;;;;4.57;3.80;;;;;;;;;;4965537;28;23982;-72
2022/06/19 08:27:06;;;;;;;11.10;4.43;;;;;;;;;;4964319;28;20234;-72
2022/06/19 08:29:33;;;;;;;6.30;4.27;;;;;;;;;;4951175;28;20323;-72
2022/06/19 08:32:00;;;;;;;9.37;4.43;;;;;;;;;;4963930;28;20228;-72
2022/06/19 08:34:27;;;;;;;6.97;4.60;;;;;;;;;;4965259;28;20228;-71
2022/06/19 08:36:54;;;;;;;5.93;4.67;;;;;;;;;;4950553;28;20224;-76
2022/06/19 08:39:20;;;;;;;6.80;4.30;;;;;;;;;;4966694;28;20700;-62
2022/06/19 08:41:59;;;;;;;7.17;4.40;;;;;;;;;;4936219;28;217589;-74
2022/06/19 08:44:43;;;;;;;9.03;3.73;;;;;;;;;;4948318;28;20240;-73
2022/06/19 08:47:19;;;;;;;7.53;3.97;;;;;;;;;;4949057;28;20288;-70
2022/06/19 08:49:49;;;;;;;9.37;3.90;;;;;;;;;;4941511;28;20232;-72
2022/06/19 08:52:34;;;;;;;7.80;3.70;;;;;;;;;;4964887;28;20417;-60
2022/06/19 08:55:01;;;;;;;8.13;4.00;;;;;;;;;;5002466;28;20711;-61
2022/06/19 08:57:28;;;;;;;9.03;4.40;;;;;;;;;;5005059;28;20242;-61
2022/06/19 09:00:03;;;;;;;8.57;3.97;;;;;;;;;;5003008;28;20230;-61
2022/06/19 09:02:41;;;;;;;8.67;3.83;;;;;;;;;;4985512;28;20308;-61
2022/06/19 09:08:06;;;;;;;7.10;3.83;;;;;;;;;;4967854;28;20225;-61
2022/06/19 09:10:45;;;;;;;7.37;4.13;;;;;;;;;;4979865;28;20702;-61
2022/06/19 09:13:11;;;;;;;8.93;4.00;;;;;;;;;;4951829;28;20241;-61
2022/06/19 09:15:38;;;;;;;6.37;3.17;;;;;;;;;;4963284;28;20235;-61
2022/06/19 09:18:09;;;;;;;7.80;3.13;;;;;;;;;;4954646;28;20248;-62
2022/06/19 09:20:53;;;;;;;6.77;3.40;;;;;;;;;;4959154;28;20233;-62
2022/06/19 09:23:20;;;;;;;6.23;3.20;;;;;;;;;;4945737;28;20220;-62
2022/06/19 09:25:57;;;;;;;10.27;3.13;;;;;;;;;;4957937;28;20233;-62
2022/06/19 09:28:56;;;;;;;7.17;2.90;;;;;;;;;;4957626;28;21011;-61
2022/06/19 09:31:34;;;;;;;5.53;2.97;;;;;;;;;;4924218;28;20232;-62
2022/06/19 09:34:04;;;;;;;6.77;3.27;;;;;;;;;;4962858;28;22145;-61
2022/06/19 09:36:38;;;;;;;8.33;3.07;;;;;;;;;;4953158;28;20229;-61
2022/06/19 09:39:07;;;;;;;4.63;2.73;;;;;;;;;;4930849;28;20578;-61
2022/06/19 09:41:38;;;;;;;5.00;2.33;;;;;;;;;;4956782;28;20236;-61
2022/06/19 09:44:12;;;;;;;7.17;3.90;;;;;;;;;;4981344;28;20237;-61
2022/06/19 09:46:43;;;;;;;5.33;3.30;;;;;;;;;;4985335;28;20238;-60
2022/06/19 09:49:10;;;;;;;5.20;3.40;;;;;;;;;;4957546;28;20235;-63
2022/06/19 09:51:53;;;;;;;7.53;4.00;;;;;;;;;;4960013;28;20241;-60
2022/06/19 09:54:22;;;;;;;10.23;3.70;;;;;;;;;;4956819;28;20311;-62
2022/06/19 09:56:50;;;;;;;6.10;3.90;;;;;;;;;;4963977;28;20240;-61
2022/06/19 09:59:20;;;;;;;5.87;3.40;;;;;;;;;;4952524;28;20689;-61
2022/06/19 10:01:47;;;;;;;8.00;3.60;;;;;;;;;;4944756;28;20241;-61
2022/06/19 10:04:21;;;;;;;7.77;2.80;;;;;;;;;;4967415;28;20265;-62
2022/06/19 10:06:48;;;;;;;6.07;3.00;;;;;;;;;;4983908;28;20224;-60
2022/06/19 10:09:20;;;;;;;4.37;2.43;;;;;;;;;;4965522;28;20256;-61
2022/06/19 10:11:47;;;;;;;7.10;2.90;;;;;;;;;;4959368;28;20716;-61
2022/06/19 10:14:32;;;;;;;6.13;2.33;;;;;;;;;;4954909;28;20244;-61
2022/06/19 10:16:59;;;;;;;6.60;2.93;;;;;;;;;;4947739;28;20239;-61
2022/06/19 10:19:26;;;;;;;4.27;2.80;;;;;;;;;;4953460;28;20233;-60
2022/06/19 10:22:14;;;;;;;9.20;2.97;;;;;;;;;;4944985;28;20235;-61
2022/06/19 10:24:44;;;;;;;6.83;2.80;;;;;;;;;;4953310;28;20252;-60
2022/06/19 10:27:13;;;;;;;6.10;2.30;;;;;;;;;;4956057;28;20256;-60
2022/06/19 10:29:47;;;;;;;7.70;2.90;;;;;;;;;;4940274;28;20232;-60
2022/06/19 10:32:32;;;;;;;7.47;2.57;;;;;;;;;;4961803;28;20245;-60
2022/06/19 10:35:15;;;;;;;5.70;2.33;;;;;;;;;;4955737;28;20282;-60
2022/06/19 10:38:17;;;;;;;7.10;2.10;;;;;;;;;;4968886;28;20311;-60
2022/06/19 10:41:00;;;;;;;7.00;2.20;;;;;;;;;;4961538;28;20688;-62
2022/06/19 10:43:33;;;;;;;5.20;1.90;;;;;;;;;;4958962;28;20230;-60
2022/06/19 10:46:01;;;;;;;6.07;1.80;;;;;;;;;;4966432;28;20689;-60
2022/06/19 10:48:29;;;;;;;5.33;1.60;;;;;;;;;;4961322;28;20264;-62
2022/06/19 10:51:16;;;;;;;5.23;1.70;;;;;;;;;;4955668;28;20219;-60
2022/06/19 10:53:56;;;;;;;6.97;1.80;;;;;;;;;;4967165;28;20260;-61
2022/06/19 10:56:41;;;;;;;8.17;1.80;;;;;;;;;;4935939;28;20247;-60
2022/06/19 10:59:08;;;;;;;4.57;1.30;;;;;;;;;;4949919;28;20317;-60
2022/06/19 11:04:21;;;;;;;7.13;1.97;;;;;;;;;;4961789;28;20370;-59
2022/06/19 11:06:52;;;;;;;6.20;1.60;;;;;;;;;;4953201;28;20229;-60
2022/06/19 11:09:29;;;;;;;6.87;1.90;;;;;;;;;;4934454;28;20683;-62
2022/06/19 11:11:57;;;;;;;6.10;1.60;;;;;;;;;;4918113;28;1134954;-61
2022/06/19 11:14:26;;;;;;;5.00;1.63;;;;;;;;;;4967913;28;20462;-60
2022/06/19 11:16:54;;;;;;;6.83;1.80;;;;;;;;;;4968862;28;20248;-60
2022/06/19 11:19:32;;;;;;;7.53;1.73;;;;;;;;;;4970357;28;20228;-62
2022/06/19 11:22:19;;;;;;;8.37;1.93;;;;;;;;;;4951978;28;20307;-60
2022/06/19 11:24:45;;;;;;;7.43;1.50;;;;;;;;;;4950518;28;20227;-60
2022/06/19 11:27:19;;;;;;;8.20;2.13;;;;;;;;;;4967776;28;20692;-60
2022/06/19 11:29:47;;;;;;;7.00;1.60;;;;;;;;;;4957689;28;20548;-59
2022/06/19 11:32:14;;;;;;;10.90;1.60;;;;;;;;;;4967808;28;21164;-60
2022/06/19 11:34:45;;;;;;;8.10;1.73;;;;;;;;;;4952097;28;20592;-60
2022/06/19 11:37:23;;;;;;;6.10;1.90;;;;;;;;;;4963358;28;20224;-60
2022/06/19 11:39:59;;;;;;;7.50;1.70;;;;;;;;;;4959436;28;20290;-61
2022/06/19 11:42:29;;;;;;;12.77;2.07;;;;;;;;;;4953990;28;20911;-60
2022/06/19 11:44:57;;;;;;;8.27;1.90;;;;;;;;;;4956296;28;20226;-60
2022/06/19 11:47:24;;;;;;;5.07;1.70;;;;;;;;;;4961184;28;20320;-60
2022/06/19 11:49:52;;;;;;;10.10;1.60;;;;;;;;;;4961004;28;20259;-60
2022/06/19 11:52:19;;;;;;;6.73;2.10;;;;;;;;;;4947122;28;20232;-60
2022/06/19 11:54:47;;;;;;;6.27;1.60;;;;;;;;;;4960508;28;20221;-60
2022/06/19 11:57:39;;;;;;;7.23;1.80;;;;;;;;;;4955262;28;20236;-63
2022/06/19 12:00:06;;;;;;;7.43;1.60;;;;;;;;;;4952176;28;20588;-61
2022/06/19 12:02:33;;;;;;;7.20;1.60;;;;;;;;;;4960989;28;20238;-60
2022/06/19 12:05:00;;;;;;;4.83;1.57;;;;;;;;;;4959255;28;20302;-60
2022/06/19 12:07:28;;;;;;;4.10;1.30;;;;;;;;;;4938527;28;20240;-60
2022/06/19 12:09:56;;;;;;;7.00;1.20;;;;;;;;;;4988063;28;20234;-60
2022/06/19 12:12:23;;;;;;;4.80;1.40;;;;;;;;;;5004316;28;20242;-60
2022/06/19 12:14:50;;;;;;;7.87;1.60;;;;;;;;;;5006060;28;20265;-60
2022/06/19 12:17:16;;;;;;;6.37;1.30;;;;;;;;;;5004963;28;20235;-71
2022/06/19 12:19:56;;;;;;;5.13;1.33;;;;;;;;;;4989675;28;20239;-71
2022/06/19 12:22:25;;;;;;;4.53;1.13;;;;;;;;;;5002604;28;28253;-71
2022/06/19 12:25:18;;;;;;;5.10;1.20;;;;;;;;;;5001271;28;20227;-72
2022/06/19 12:27:47;;;;;;;4.23;1.60;;;;;;;;;;4955345;28;20233;-71
2022/06/19 12:30:18;;;;;;;6.07;1.50;;;;;;;;;;4938536;28;20229;-72
2022/06/19 12:32:46;;;;;;;5.90;1.63;;;;;;;;;;4962381;28;20235;-72
2022/06/19 12:35:22;;;;;;;4.17;1.27;;;;;;;;;;5004875;28;20302;-73
2022/06/19 12:37:49;;;;;;;5.70;1.17;;;;;;;;;;4985798;28;20231;-71
2022/06/19 12:40:18;;;;;;;5.30;1.30;;;;;;;;;;5000928;28;20721;-72
2022/06/19 12:42:50;;;;;;;5.53;1.30;;;;;;;;;;4949792;28;20231;-71
2022/06/19 12:45:45;;;;;;;3.50;1.13;;;;;;;;;;4946940;28;20315;-72
2022/06/19 12:48:18;;;;;;;4.30;1.17;;;;;;;;;;4944772;28;20239;-71
2022/06/19 12:50:51;;;;;;;5.07;1.40;;;;;;;;;;4947335;28;217428;-72
2022/06/19 12:53:32;;;;;;;3.73;1.20;;;;;;;;;;4946469;28;20259;-73
2022/06/19 12:56:05;;;;;;;4.47;1.30;;;;;;;;;;4941500;28;20384;-76
2022/06/19 12:58:35;;;;;;;4.47;1.07;;;;;;;;;;4895339;28;235065;-79
2022/06/19 13:01:04;;;;;;;4.40;1.13;;;;;;;;;;4948428;28;220771;-72
2022/06/19 13:03:40;;;;;;;4.97;1.30;;;;;;;;;;4957841;28;20224;-70
2022/06/19 13:06:19;;;;;;;5.83;1.40;;;;;;;;;;4955045;28;20362;-69
2022/06/19 13:08:54;;;;;;;5.17;1.20;;;;;;;;;;4962227;28;20220;-69
2022/06/19 13:11:21;;;;;;;3.57;0.90;;;;;;;;;;4948703;28;46950;-71
2022/06/19 13:13:54;;;;;;;4.03;1.17;;;;;;;;;;4950945;28;20233;-70
2022/06/19 13:16:29;;;;;;;4.97;1.53;;;;;;;;;;4928910;28;20228;-71
2022/06/19 13:19:00;;;;;;;3.13;1.00;;;;;;;;;;4956862;28;20835;-71
2022/06/19 13:21:48;;;;;;;3.67;1.00;;;;;;;;;;4954365;28;20221;-68
2022/06/19 13:24:14;;;;;;;6.23;1.33;;;;;;;;;;4938927;28;20245;-68
2022/06/19 13:27:16;;;;;;;4.00;1.23;;;;;;;;;;4963729;28;20224;-65
2022/06/19 13:29:46;;;;;;;4.40;1.20;;;;;;;;;;4909406;28;20242;-66
2022/06/19 13:32:21;;;;;;;4.27;1.23;;;;;;;;;;4938531;28;20244;-70
2022/06/19 13:35:08;;;;;;;3.33;0.93;;;;;;;;;;4945827;28;20239;-68
2022/06/19 13:37:38;;;;;;;4.13;1.10;;;;;;;;;;4938668;28;20225;-65
2022/06/19 13:40:37;;;;;;;4.83;1.37;;;;;;;;;;4957163;28;20242;-67
2022/06/19 13:43:07;;;;;;;4.90;1.30;;;;;;;;;;4897355;28;26504;-68
2022/06/19 13:45:37;;;;;;;4.67;1.10;;;;;;;;;;4959879;28;21050;-69
2022/06/19 13:48:19;;;;;;;3.73;1.17;;;;;;;;;;4953747;28;20235;-69
2022/06/19 13:50:50;;;;;;;3.60;1.30;;;;;;;;;;4946817;28;20240;-60
2022/06/19 13:53:23;;;;;;;4.10;1.20;;;;;;;;;;4959753;28;20588;-74
2022/06/19 13:55:50;;;;;;;4.70;1.27;;;;;;;;;;4895931;28;264100;-71
2022/06/19 13:58:17;;;;;;;3.67;1.07;;;;;;;;;;4952508;28;39788;-72
2022/06/19 14:01:01;;;;;;;4.40;1.40;;;;;;;;;;4949969;28;20231;-71
2022/06/19 14:06:19;;;;;;;4.10;0.97;;;;;;;;;;4891083;28;20225;-74
2022/06/19 14:08:52;;;;;;;2.70;1.13;;;;;;;;;;4960514;28;20948;-72
2022/06/19 14:11:19;;;;;;;3.97;1.27;;;;;;;;;;4932581;28;231307;-71
2022/06/19 14:14:07;;;;;;;4.70;1.10;;;;;;;;;;4877518;28;229462;-71
2022/06/19 14:16:34;;;;;;;3.90;1.10;;;;;;;;;;4891655;28;236745;-71
2022/06/19 14:19:16;;;;;;;2.83;1.00;;;;;;;;;;4922454;28;25071;-72
2022/06/19 14:21:50;;;;;;;3.63;1.40;;;;;;;;;;4926159;28;20221;-72
2022/06/19 14:24:35;;;;;;;4.90;1.30;;;;;;;;;;4904567;28;218916;-74
2022/06/19 14:27:18;;;;;;;4.23;1.30;;;;;;;;;;4876902;28;224606;-71
2022/06/19 14:29:45;;;;;;;7.20;1.40;;;;;;;;;;4923037;28;225764;-74
2022/06/19 14:32:43;;;;;;;4.13;1.13;;;;;;;;;;4913439;28;23132;-70
2022/06/19 14:35:09;;;;;;;3.90;1.33;;;;;;;;;;4915210;28;212232;-69
2022/06/19 14:37:38;;;;;;;4.27;1.30;;;;;;;;;;4894523;28;20644;-71
2022/06/19 14:40:19;;;;;;;4.20;1.20;;;;;;;;;;4931596;28;20716;-69
2022/06/19 14:42:56;;;;;;;5.03;1.20;;;;;;;;;;4895788;28;20284;-70
2022/06/19 14:45:23;;;;;;;3.37;1.30;;;;;;;;;;4910049;28;20244;-69
2022/06/19 14:47:59;;;;;;;4.63;1.10;;;;;;;;;;4930739;28;20236;-70
2022/06/19 14:50:25;;;;;;;3.60;1.20;;;;;;;;;;4895658;28;236767;-72
2022/06/19 14:52:55;;;;;;;4.33;1.37;;;;;;;;;;4899178;28;20210;-63
2022/06/19 14:55:41;;;;;;;4.80;1.13;;;;;;;;;;4932891;28;20612;-72
2022/06/19 14:58:16;;;;;;;3.20;1.20;;;;;;;;;;4898767;28;20269;-72
2022/06/19 15:00:53;;;;;;;5.70;0.90;;;;;;;;;;4916452;28;20580;-71
2022/06/19 15:03:37;;;;;;;4.27;1.40;;;;;;;;;;4869567;28;42134;-71
2022/06/19 15:06:14;;;;;;;5.03;1.20;;;;;;;;;;4892959;28;20221;-75
2022/06/19 15:08:41;;;;;;;3.47;1.10;;;;;;;;;;4896725;28;639474;-77
2022/06/19 15:11:08;;;;;;;5.87;1.30;;;;;;;;;;4882377;28;218141;-69
2022/06/19 15:13:36;;;;;;;4.10;1.20;;;;;;;;;;4914372;28;20239;-73